createdAt,value
2023-04-06T00:00:36.008Z,101206.56
2023-04-06T00:05:37.576Z,101198.09
2023-04-06T00:10:39.226Z,101200.22
2023-04-06T00:15:40.782Z,101192.34
2023-04-06T00:20:42.376Z,101189.41
2023-04-06T00:25:43.955Z,101189.06
2023-04-06T00:30:45.471Z,101183.19
2023-04-06T00:35:47.046Z,101184.81
2023-04-06T00:40:48.703Z,101178.59
2023-04-06T00:45:50.470Z,101174.59
2023-04-06T00:50:52.169Z,101165.75
2023-04-06T00:55:53.814Z,101162.56
2023-04-06T01:00:57.764Z,101148.25
2023-04-06T01:05:59.939Z,101147.06
2023-04-06T01:11:09.477Z,101140.50
2023-04-06T01:16:12.309Z,101131.09
2023-04-06T01:21:38.562Z,101125.09
2023-04-06T01:27:15.710Z,101122.50
2023-04-06T01:32:23.439Z,101113.00
2023-04-06T01:37:27.445Z,101116.75
2023-04-06T01:42:32.275Z,101103.13
2023-04-06T01:47:34.590Z,101111.59
2023-04-06T01:52:36.560Z,101093.94
2023-04-06T01:57:38.565Z,101114.16
2023-04-06T02:02:49.057Z,101104.53
2023-04-06T02:07:57.021Z,101101.25
2023-04-06T02:13:06.578Z,101088.19
2023-04-06T02:18:09.668Z,101097.72
2023-04-06T02:23:12.492Z,101088.66
2023-04-06T02:28:15.112Z,101090.53
2023-04-06T02:33:16.951Z,101093.38
2023-04-06T02:38:21.463Z,101091.50
2023-04-06T02:43:23.609Z,101089.25
2023-04-06T02:48:30.446Z,101079.59
2023-04-06T02:53:32.515Z,101086.84
2023-04-06T02:58:35.288Z,101089.44
2023-04-06T03:03:37.574Z,101081.56
2023-04-06T03:08:45.936Z,101072.47
2023-04-06T03:13:48.697Z,101078.44
2023-04-06T03:18:50.614Z,101076.75
2023-04-06T03:23:53.348Z,101089.34
2023-04-06T03:28:55.017Z,101072.94
2023-04-06T03:34:01.672Z,101083.66
2023-04-06T03:39:07.510Z,101077.63
2023-04-06T03:44:13.816Z,101077.44
2023-04-06T03:49:15.745Z,101078.41
2023-04-06T03:54:21.608Z,101079.47
2023-04-06T03:59:23.491Z,101078.91
2023-04-06T04:04:28.387Z,101073.41
2023-04-06T04:09:30.019Z,101077.16
2023-04-06T04:14:32.521Z,101075.19
2023-04-06T04:19:34.706Z,101076.38
2023-04-06T04:24:37.179Z,101067.91
2023-04-06T04:29:39.037Z,101080.22
2023-04-06T04:34:44.264Z,101085.41
2023-04-06T04:39:54.333Z,101088.22
2023-04-06T04:44:56.020Z,101082.06
2023-04-06T04:50:08.983Z,101080.19
2023-04-06T04:55:14.905Z,101083.34
2023-04-06T05:00:19.504Z,101082.91
2023-04-06T05:05:21.437Z,101090.50
2023-04-06T05:10:25.016Z,101090.38
2023-04-06T05:15:31.706Z,101089.25
2023-04-06T05:20:40.576Z,101094.75
2023-04-06T05:25:43.742Z,101087.72
2023-04-06T05:30:54.048Z,101088.88
2023-04-06T05:35:56.937Z,101089.13
2023-04-06T05:40:59.016Z,101093.38
2023-04-06T05:46:05.337Z,101091.47
2023-04-06T05:51:07.029Z,101100.22
2023-04-06T05:56:17.773Z,101095.81
2023-04-06T06:01:20.291Z,101097.06
2023-04-06T06:06:23.095Z,101107.03
2023-04-06T06:11:40.037Z,101097.97
2023-04-06T06:16:42.460Z,101095.03
2023-04-06T06:21:47.266Z,101088.78
2023-04-06T06:26:50.274Z,101089.91
2023-04-06T06:31:54.082Z,101100.31
2023-04-06T06:36:56.220Z,101104.91
2023-04-06T06:41:58.208Z,101096.22
2023-04-06T06:47:19.000Z,101098.00
2023-04-06T06:52:20.720Z,101100.88
2023-04-06T06:57:22.389Z,101091.47
2023-04-06T07:02:25.119Z,101091.69
2023-04-06T07:07:27.226Z,101092.47
2023-04-06T07:12:29.044Z,101091.19
2023-04-06T07:17:30.707Z,101090.38
2023-04-06T07:22:32.627Z,101089.69
2023-04-06T07:27:34.496Z,101087.44
2023-04-06T07:32:37.542Z,101091.31
2023-04-06T07:37:39.620Z,101088.81
2023-04-06T07:42:41.360Z,101086.50
2023-04-06T07:47:43.699Z,101093.75
2023-04-06T07:52:45.394Z,101081.88
2023-04-06T07:57:47.239Z,101083.69
2023-04-06T08:02:49.084Z,101073.22
2023-04-06T08:07:51.182Z,101083.38
2023-04-06T08:12:53.443Z,101075.66
2023-04-06T08:17:55.070Z,101070.00
2023-04-06T08:22:56.662Z,101075.25
2023-04-06T08:27:58.415Z,101068.00
2023-04-06T08:33:00.053Z,101063.53
2023-04-06T08:38:01.793Z,101069.97
2023-04-06T08:43:06.575Z,101075.19
2023-04-06T08:48:09.285Z,101062.94
2023-04-06T08:53:12.895Z,101062.91
2023-04-06T08:58:24.062Z,101061.16
2023-04-06T09:03:38.287Z,101055.69
2023-04-06T09:08:41.931Z,101057.09
2023-04-06T09:13:47.438Z,101049.88
2023-04-06T09:18:50.571Z,101056.38
2023-04-06T09:24:02.926Z,101056.22
2023-04-06T09:29:04.723Z,101056.53
2023-04-06T09:34:06.825Z,101053.50
2023-04-06T09:39:08.752Z,101042.44
2023-04-06T09:44:13.716Z,101040.34
2023-04-06T09:49:15.390Z,101042.44
2023-04-06T09:54:20.675Z,101027.09
2023-04-06T09:59:45.146Z,101021.00
2023-04-06T10:05:24.226Z,101030.34
2023-04-06T10:10:26.654Z,101020.56
2023-04-06T10:15:30.031Z,101023.47
2023-04-06T10:20:40.981Z,101023.09
2023-04-06T10:25:57.278Z,101026.03
2023-04-06T10:31:01.091Z,101023.25
2023-04-06T10:36:16.716Z,101022.06
2023-04-06T10:41:18.510Z,101015.84
2023-04-06T10:46:32.531Z,101010.81
2023-04-06T10:51:38.793Z,101012.47
2023-04-06T10:56:40.502Z,101000.84
2023-04-06T11:01:45.806Z,101006.16
2023-04-06T11:06:49.125Z,100998.09
2023-04-06T11:11:50.846Z,100992.28
2023-04-06T11:16:54.915Z,101001.63
2023-04-06T11:21:59.408Z,101005.59
2023-04-06T11:27:01.537Z,101001.97
2023-04-06T11:32:04.960Z,101005.88
2023-04-06T11:37:11.560Z,100994.69
2023-04-06T11:42:13.304Z,100996.53
2023-04-06T11:47:15.123Z,100989.19
2023-04-06T11:52:28.418Z,100988.88
2023-04-06T11:57:30.200Z,100988.53
2023-04-06T12:02:32.040Z,100979.31
2023-04-06T12:07:34.102Z,100982.75
2023-04-06T12:12:35.974Z,100975.81
2023-04-06T12:17:37.622Z,100972.31
2023-04-06T12:22:39.677Z,100972.63
2023-04-06T12:27:41.409Z,100979.06
2023-04-06T12:32:43.069Z,100974.31
2023-04-06T12:37:44.953Z,100968.84
2023-04-06T12:42:47.194Z,100968.66
2023-04-06T12:47:49.123Z,100976.50
2023-04-06T12:52:50.855Z,100963.75
2023-04-06T12:57:52.541Z,100961.00
2023-04-06T13:02:54.241Z,100960.16
2023-04-06T13:07:56.026Z,100966.13
2023-04-06T13:12:57.962Z,100961.22
2023-04-06T13:17:59.628Z,100967.53
2023-04-06T13:23:01.525Z,100967.00
2023-04-06T13:28:03.430Z,100967.84
2023-04-06T13:33:05.325Z,100957.47
2023-04-06T13:38:07.275Z,100963.19
2023-04-06T13:43:09.299Z,100962.56
2023-04-06T13:48:11.653Z,100968.97
2023-04-06T13:53:14.018Z,100973.16
2023-04-06T13:58:15.646Z,100974.03
2023-04-06T14:03:17.421Z,100984.69
2023-04-06T14:08:19.035Z,100991.84
2023-04-06T14:13:21.120Z,100984.13
2023-04-06T14:18:23.245Z,100992.66
2023-04-06T14:23:24.951Z,100989.13
2023-04-06T14:28:26.577Z,100994.16
2023-04-06T14:33:28.453Z,100984.75
2023-04-06T14:38:30.005Z,100985.94
2023-04-06T14:43:31.626Z,100979.13
2023-04-06T14:48:33.460Z,100980.13
2023-04-06T14:53:35.351Z,100975.50
2023-04-06T14:58:37.152Z,100972.63
2023-04-06T15:03:38.831Z,100974.06
2023-04-06T15:08:40.710Z,100973.06
2023-04-06T15:13:43.771Z,100967.47
2023-04-06T15:18:45.499Z,100965.81
2023-04-06T15:23:47.463Z,100972.41
2023-04-06T15:28:49.466Z,100960.84
2023-04-06T15:33:51.110Z,100962.19
2023-04-06T15:38:53.353Z,100963.16
2023-04-06T15:43:55.496Z,100961.81
2023-04-06T15:48:57.610Z,100958.78
2023-04-06T15:53:59.203Z,100960.13
2023-04-06T15:59:00.872Z,100960.53
2023-04-06T16:04:03.200Z,100958.78
2023-04-06T16:09:05.054Z,100962.22
2023-04-06T16:14:06.661Z,100965.34
2023-04-06T16:19:08.250Z,100971.56
2023-04-06T16:24:09.993Z,100972.44
2023-04-06T16:29:11.891Z,100974.75
2023-04-06T16:34:14.290Z,100969.06
2023-04-06T16:39:16.101Z,100978.56
2023-04-06T16:44:17.939Z,100978.56
2023-04-06T16:49:19.665Z,100972.34
2023-04-06T16:54:21.420Z,100971.22
2023-04-06T16:59:22.961Z,100967.97
2023-04-06T17:04:24.771Z,100968.53
2023-04-06T17:09:26.358Z,100969.00
2023-04-06T17:14:28.111Z,100964.75
2023-04-06T17:19:30.016Z,100969.22
2023-04-06T17:24:31.836Z,100970.72
2023-04-06T17:29:35.902Z,100968.78
2023-04-06T17:34:37.470Z,100974.31
2023-04-06T17:39:39.282Z,100964.88
2023-04-06T17:44:41.180Z,100969.63
2023-04-06T17:49:43.034Z,100961.28
2023-04-06T17:54:44.649Z,100962.25
2023-04-06T17:59:46.326Z,100964.06
2023-04-06T18:04:55.186Z,100961.13
2023-04-06T18:09:57.187Z,100971.44
2023-04-06T18:14:58.843Z,100973.22
2023-04-06T18:20:00.543Z,100972.41
2023-04-06T18:25:03.815Z,100972.22
2023-04-06T18:30:06.037Z,100962.09
2023-04-06T18:35:08.465Z,100954.91
2023-04-06T18:40:31.706Z,100955.09
2023-04-06T18:45:34.595Z,100956.72
2023-04-06T18:50:36.283Z,100955.41
2023-04-06T18:55:37.838Z,100953.31
2023-04-06T19:00:42.758Z,100955.25
2023-04-06T19:05:44.426Z,100951.19
2023-04-06T19:10:45.919Z,100952.94
2023-04-06T19:15:47.434Z,100949.38
2023-04-06T19:20:48.981Z,100937.78
2023-04-06T19:25:50.641Z,100939.75
2023-04-06T19:30:52.323Z,100936.78
2023-04-06T19:35:53.955Z,100936.47
2023-04-06T19:40:55.562Z,100933.22
2023-04-06T19:45:57.269Z,100919.81
2023-04-06T19:50:58.827Z,100921.13
2023-04-06T19:56:00.391Z,100911.16
2023-04-06T20:01:02.438Z,100907.91
2023-04-06T20:06:04.200Z,100906.56
2023-04-06T20:11:06.178Z,100911.31
2023-04-06T20:16:08.025Z,100904.94
2023-04-06T20:21:10.273Z,100895.63
2023-04-06T20:26:12.050Z,100896.13
2023-04-06T20:31:13.753Z,100894.16
2023-04-06T20:36:15.318Z,100898.09
2023-04-06T20:41:16.873Z,100893.38
2023-04-06T20:46:18.770Z,100896.47
2023-04-06T20:51:21.667Z,100889.44
2023-04-06T20:56:23.420Z,100892.03
2023-04-06T21:01:24.992Z,100878.63
2023-04-06T21:06:27.470Z,100878.63
2023-04-06T21:11:29.095Z,100877.81
2023-04-06T21:16:30.744Z,100867.22
2023-04-06T21:21:32.358Z,100860.03
2023-04-06T21:26:35.017Z,100849.56
2023-04-06T21:31:36.851Z,100848.28
2023-04-06T21:36:39.824Z,100854.16
2023-04-06T21:41:41.514Z,100839.94
2023-04-06T21:46:43.718Z,100842.03
2023-04-06T21:51:45.973Z,100851.38
2023-04-06T21:56:48.183Z,100840.44
2023-04-06T22:01:50.078Z,100837.00
2023-04-06T22:06:51.669Z,100821.47
2023-04-06T22:11:53.799Z,100818.06
2023-04-06T22:16:55.451Z,100819.19
2023-04-06T22:21:57.715Z,100818.53
2023-04-06T22:26:59.543Z,100812.84
2023-04-06T22:32:01.260Z,100818.81
2023-04-06T22:37:03.362Z,100810.34
2023-04-06T22:42:05.096Z,100808.06
2023-04-06T22:47:06.800Z,100816.53
2023-04-06T22:52:12.138Z,100802.31
2023-04-06T22:57:13.965Z,100805.53
2023-04-06T23:02:15.529Z,100797.69
2023-04-06T23:07:17.550Z,100803.47
2023-04-06T23:12:19.238Z,100795.75
2023-04-06T23:17:20.955Z,100800.97
2023-04-06T23:22:22.981Z,100791.66
2023-04-06T23:27:24.569Z,100784.31
2023-04-06T23:32:26.245Z,100786.72
2023-04-06T23:37:27.889Z,100792.31
2023-04-06T23:42:29.519Z,100790.31
2023-04-06T23:47:31.609Z,100787.59
2023-04-06T23:52:33.553Z,100788.53
2023-04-06T23:57:35.218Z,100791.31
